createdAt,value
2018-04-15T00:00:44.148Z,3.13
2018-04-15T00:05:47.383Z,3.30
2018-04-15T00:10:50.606Z,3.03
2018-04-15T00:15:53.970Z,3.40
2018-04-15T00:20:57.279Z,3.80
2018-04-15T00:26:00.506Z,2.90
2018-04-15T00:31:04.110Z,3.60
2018-04-15T00:36:07.735Z,2.97
2018-04-15T00:41:11.021Z,3.37
2018-04-15T00:46:15.265Z,3.50
2018-04-15T00:51:18.917Z,3.10
2018-04-15T00:56:22.139Z,3.83
2018-04-15T01:01:25.481Z,3.60
2018-04-15T01:06:29.100Z,3.37
2018-04-15T01:11:32.398Z,3.47
2018-04-15T01:16:35.631Z,3.47
2018-04-15T01:21:39.429Z,3.23
2018-04-15T01:26:42.725Z,3.97
2018-04-15T01:31:46.147Z,4.00
2018-04-15T01:36:49.398Z,3.83
2018-04-15T01:41:52.648Z,3.53
2018-04-15T01:46:55.871Z,3.90
2018-04-15T01:51:59.181Z,3.97
2018-04-15T01:57:02.816Z,3.97
2018-04-15T02:02:06.104Z,3.80
2018-04-15T02:07:09.734Z,3.90
2018-04-15T02:12:12.986Z,3.27
2018-04-15T02:17:16.249Z,3.73
2018-04-15T02:22:19.927Z,3.10
2018-04-15T02:27:23.143Z,3.87
2018-04-15T02:32:26.350Z,3.17
2018-04-15T02:37:29.964Z,3.73
2018-04-15T02:42:33.202Z,3.43
2018-04-15T02:47:36.479Z,3.20
2018-04-15T02:52:39.728Z,3.30
2018-04-15T02:57:42.961Z,3.27
2018-04-15T03:02:46.222Z,3.77
2018-04-15T03:07:49.913Z,3.83
2018-04-15T03:12:53.127Z,3.80
2018-04-15T03:17:56.952Z,3.53
2018-04-15T03:23:00.747Z,3.87
2018-04-15T03:28:03.968Z,3.73
2018-04-15T03:33:07.598Z,3.77
2018-04-15T03:38:11.305Z,3.60
2018-04-15T03:43:14.944Z,4.03
2018-04-15T03:48:18.184Z,4.00
2018-04-15T03:53:21.428Z,4.17
2018-04-15T03:58:25.139Z,3.43
2018-04-15T04:03:28.831Z,4.23
2018-04-15T04:08:32.055Z,4.93
2018-04-15T04:13:35.318Z,5.10
2018-04-15T04:18:50.452Z,3.63
2018-04-15T04:24:15.979Z,4.70
2018-04-15T04:29:19.198Z,4.97
2018-04-15T04:34:22.844Z,5.03
2018-04-15T04:39:26.093Z,4.83
2018-04-15T04:44:29.325Z,6.03
2018-04-15T04:49:32.544Z,5.30
2018-04-15T04:54:36.160Z,5.43
2018-04-15T04:59:39.799Z,5.03
2018-04-15T05:04:43.071Z,5.23
2018-04-15T05:09:46.309Z,5.10
2018-04-15T05:14:49.593Z,5.23
2018-04-15T05:19:53.298Z,5.47
2018-04-15T05:24:56.533Z,5.17
2018-04-15T05:30:00.330Z,4.80
2018-04-15T05:35:03.584Z,4.70
2018-04-15T05:40:06.814Z,4.67
2018-04-15T05:45:10.066Z,5.03
2018-04-15T05:50:13.711Z,4.87
2018-04-15T05:55:17.068Z,5.47
2018-04-15T06:00:20.327Z,4.77
2018-04-15T06:05:24.273Z,5.00
2018-04-15T06:10:27.489Z,5.50
2018-04-15T06:15:30.707Z,4.70
2018-04-15T06:20:33.918Z,4.73
2018-04-15T06:25:37.191Z,5.47
2018-04-15T06:30:40.463Z,4.63
2018-04-15T06:35:43.728Z,4.47
2018-04-15T06:40:46.967Z,4.97
2018-04-15T06:45:50.224Z,4.67
2018-04-15T06:50:53.480Z,4.57
2018-04-15T06:55:56.774Z,4.50
2018-04-15T07:01:00.403Z,5.03
2018-04-15T07:06:03.650Z,4.73
2018-04-15T07:11:06.899Z,4.77
2018-04-15T07:16:10.587Z,4.10
2018-04-15T07:21:13.841Z,4.97
2018-04-15T07:26:17.058Z,4.43
2018-04-15T07:31:20.622Z,5.15
2018-04-15T07:36:24.021Z,5.43
2018-04-15T07:41:27.354Z,5.30
2018-04-15T07:46:31.061Z,4.05
2018-04-15T07:51:35.166Z,5.20
2018-04-15T07:56:38.423Z,5.43
2018-04-15T08:01:42.199Z,5.30
2018-04-15T08:06:45.643Z,4.97
2018-04-15T08:11:48.935Z,4.67
2018-04-15T08:16:52.326Z,5.43
2018-04-15T08:21:55.871Z,4.90
2018-04-15T08:26:59.586Z,4.70
2018-04-15T08:32:03.230Z,5.20
2018-04-15T08:37:06.479Z,5.73
2018-04-15T08:42:09.707Z,5.78
2018-04-15T08:47:13.485Z,5.03
2018-04-15T08:52:16.833Z,5.35
2018-04-15T08:57:20.450Z,5.12
2018-04-15T09:02:24.111Z,4.60
2018-04-15T09:07:27.380Z,4.75
2018-04-15T09:12:30.792Z,5.05
2018-04-15T09:17:34.478Z,4.80
2018-04-15T09:22:37.722Z,5.20
2018-04-15T09:27:40.970Z,4.97
2018-04-15T09:32:44.303Z,4.85
2018-04-15T09:37:47.580Z,4.68
2018-04-15T09:42:51.845Z,5.68
2018-04-15T09:47:55.255Z,5.28
2018-04-15T09:52:58.670Z,4.95
2018-04-15T09:58:02.309Z,4.62
2018-04-15T10:03:05.580Z,4.25
2018-04-15T10:08:08.872Z,4.57
2018-04-15T10:13:12.200Z,4.95
2018-04-15T10:18:15.508Z,5.37
2018-04-15T10:23:18.744Z,4.87
2018-04-15T10:28:22.037Z,5.18
2018-04-15T10:33:25.746Z,5.00
2018-04-15T10:38:29.380Z,4.90
2018-04-15T10:43:32.626Z,5.03
2018-04-15T10:48:35.981Z,5.00
2018-04-15T10:53:39.274Z,6.32
2018-04-15T10:58:42.624Z,5.82
2018-04-15T11:03:46.009Z,5.87
2018-04-15T11:08:49.303Z,6.65
2018-04-15T11:13:52.626Z,6.37
2018-04-15T11:18:56.532Z,6.20
2018-04-15T11:23:59.754Z,6.45
2018-04-15T11:29:03.422Z,6.45
2018-04-15T11:34:06.762Z,6.12
2018-04-15T11:39:10.400Z,6.37
2018-04-15T11:44:14.063Z,6.50
2018-04-15T11:49:17.362Z,7.65
2018-04-15T11:54:20.812Z,6.82
2018-04-15T11:59:24.033Z,7.05
2018-04-15T12:04:27.745Z,6.78
2018-04-15T12:09:31.366Z,7.00
2018-04-15T12:14:34.989Z,6.78
2018-04-15T12:19:38.228Z,7.37
2018-04-15T12:24:41.446Z,7.72
2018-04-15T12:29:44.693Z,7.05
2018-04-15T12:34:47.948Z,8.00
2018-04-15T12:39:51.296Z,7.45
2018-04-15T12:44:54.528Z,8.13
2018-04-15T12:49:57.747Z,7.90
2018-04-15T12:55:01.022Z,8.77
2018-04-15T13:00:04.674Z,9.23
2018-04-15T13:05:07.916Z,8.38
2018-04-15T13:10:11.157Z,9.15
2018-04-15T13:15:14.858Z,7.65
2018-04-15T13:20:18.267Z,8.48
2018-04-15T13:25:21.576Z,9.63
2018-04-15T13:30:25.195Z,9.48
2018-04-15T13:35:28.842Z,9.85
2018-04-15T13:40:32.083Z,8.98
2018-04-15T13:45:35.319Z,9.60
2018-04-15T13:50:39.146Z,9.27
2018-04-15T13:55:43.062Z,8.93
2018-04-15T14:00:47.655Z,7.87
2018-04-15T14:05:52.051Z,8.90
2018-04-15T14:10:55.699Z,8.50
2018-04-15T14:15:59.463Z,8.27
2018-04-15T14:21:02.742Z,7.78
2018-04-15T14:26:06.291Z,8.25
2018-04-15T14:31:10.138Z,8.27
2018-04-15T14:36:14.541Z,8.48
2018-04-15T14:41:18.178Z,7.62
2018-04-15T14:46:21.394Z,8.05
2018-04-15T14:51:24.616Z,7.35
2018-04-15T14:56:27.850Z,7.87
2018-04-15T15:01:31.105Z,7.82
2018-04-15T15:06:34.391Z,8.43
2018-04-15T15:11:38.001Z,6.93
2018-04-15T15:16:41.720Z,7.60
2018-04-15T15:21:45.942Z,7.85
2018-04-15T15:26:49.564Z,8.07
2018-04-15T15:31:53.284Z,7.40
2018-04-15T15:36:56.946Z,7.95
2018-04-15T15:42:00.163Z,6.65
2018-04-15T15:47:03.444Z,8.23
2018-04-15T15:52:06.720Z,6.85
2018-04-15T15:57:10.523Z,7.35
2018-04-15T16:02:14.150Z,5.97
2018-04-15T16:07:17.875Z,6.70
2018-04-15T16:12:21.152Z,6.90
2018-04-15T16:17:24.401Z,6.47
2018-04-15T16:22:28.082Z,6.62
2018-04-15T16:27:31.343Z,6.85
2018-04-15T16:32:34.609Z,6.85
2018-04-15T16:37:43.270Z,6.72
2018-04-15T16:42:46.551Z,7.47
2018-04-15T16:47:50.267Z,6.78
2018-04-15T16:52:53.476Z,7.95
2018-04-15T16:57:57.102Z,8.23
2018-04-15T17:03:00.468Z,10.77
2018-04-15T17:08:03.798Z,10.23
2018-04-15T17:13:07.439Z,9.50
2018-04-15T17:18:10.796Z,10.55
2018-04-15T17:23:15.364Z,9.20
2018-04-15T17:28:19.065Z,8.75
2018-04-15T17:33:22.699Z,8.93
2018-04-15T17:38:26.114Z,8.48
2018-04-15T17:43:29.407Z,8.82
2018-04-15T17:48:33.128Z,9.23
2018-04-15T17:53:36.776Z,10.73
2018-04-15T17:58:40.247Z,10.68
2018-04-15T18:03:43.928Z,9.25
2018-04-15T18:08:47.182Z,9.00
2018-04-15T18:13:50.501Z,8.35
2018-04-15T18:18:53.727Z,8.82
2018-04-15T18:23:56.954Z,8.63
2018-04-15T18:29:00.836Z,8.43
2018-04-15T18:34:04.623Z,7.95
2018-04-15T18:39:08.238Z,8.15
2018-04-15T18:44:11.865Z,7.90
2018-04-15T18:49:15.975Z,7.68
2018-04-15T18:54:19.242Z,8.32
2018-04-15T18:59:22.474Z,8.38
2018-04-15T19:04:26.818Z,8.73
2018-04-15T19:09:32.254Z,8.85
2018-04-15T19:14:35.596Z,7.95
2018-04-15T19:19:39.741Z,8.30
2018-04-15T19:24:42.992Z,9.20
2018-04-15T19:29:46.340Z,9.57
2018-04-15T19:34:49.586Z,9.63
2018-04-15T19:39:52.911Z,9.20
2018-04-15T19:44:58.242Z,9.23
2018-04-15T19:50:01.550Z,8.38
2018-04-15T19:55:05.788Z,7.57
2018-04-15T20:00:09.209Z,8.35
2018-04-15T20:05:12.500Z,8.55
2018-04-15T20:10:15.868Z,7.60
2018-04-15T20:15:19.126Z,7.85
2018-04-15T20:20:22.364Z,7.95
2018-04-15T20:25:25.581Z,7.03
2018-04-15T20:30:29.279Z,7.43
2018-04-15T20:35:32.937Z,6.97
2018-04-15T20:40:36.318Z,6.10
2018-04-15T20:45:40.067Z,5.78
2018-04-15T20:50:43.434Z,6.10
2018-04-15T20:55:47.219Z,6.05
2018-04-15T21:00:50.561Z,6.43
2018-04-15T21:05:54.181Z,6.05
2018-04-15T21:10:58.174Z,6.70
2018-04-15T21:16:01.844Z,7.28
2018-04-15T21:21:05.902Z,7.57
2018-04-15T21:26:09.350Z,8.18
2018-04-15T21:31:12.627Z,7.85
2018-04-15T21:36:18.235Z,7.18
2018-04-15T21:41:22.139Z,6.05
2018-04-15T21:46:25.549Z,6.28
2018-04-15T21:51:29.470Z,8.07
2018-04-15T21:56:36.550Z,8.38
2018-04-15T22:01:40.178Z,9.85
2018-04-15T22:06:43.517Z,10.10
2018-04-15T22:11:59.356Z,9.98
2018-04-15T22:17:02.645Z,10.23
2018-04-15T22:22:05.906Z,9.48
2018-04-15T22:27:09.144Z,10.10
2018-04-15T22:32:17.434Z,8.77
2018-04-15T22:37:21.078Z,8.82
2018-04-15T22:42:24.566Z,8.43
2018-04-15T22:47:27.980Z,9.27
2018-04-15T22:52:31.927Z,8.63
2018-04-15T22:57:37.664Z,8.50
2018-04-15T23:02:47.789Z,7.43
2018-04-15T23:07:51.167Z,8.15
2018-04-15T23:12:54.550Z,7.65
2018-04-15T23:17:58.881Z,7.15
2018-04-15T23:23:03.016Z,7.10
2018-04-15T23:28:06.951Z,6.87
2018-04-15T23:33:10.548Z,7.30
2018-04-15T23:38:14.458Z,8.07
2018-04-15T23:48:53.331Z,8.93
2018-04-15T23:53:59.066Z,8.13
2018-04-15T23:59:02.316Z,9.27
